sensor_id;sensor_type;location;lat;lon;timestamp;temperature;humidity
17565;DHT22;62994;52.126;5.596;2023-03-01T00:00:06;2.80;99.90
17565;DHT22;62994;52.126;5.596;2023-03-01T00:02:35;2.70;99.90
17565;DHT22;62994;52.126;5.596;2023-03-01T00:05:06;2.70;99.90
17565;DHT22;62994;52.126;5.596;2023-03-01T00:07:34;2.70;99.90
17565;DHT22;62994;52.126;5.596;2023-03-01T00:10:01;2.60;99.90
17565;DHT22;62994;52.126;5.596;2023-03-01T00:12:28;2.60;99.90
17565;DHT22;62994;52.126;5.596;2023-03-01T00:14:57;2.60;99.90
17565;DHT22;62994;52.126;5.596;2023-03-01T00:17:24;2.60;99.90
17565;DHT22;62994;52.126;5.596;2023-03-01T00:19:53;2.50;99.90
17565;DHT22;62994;52.126;5.596;2023-03-01T00:22:20;2.50;99.90
17565;DHT22;62994;52.126;5.596;2023-03-01T00:24:47;2.50;99.90
17565;DHT22;62994;52.126;5.596;2023-03-01T00:27:14;2.50;99.90
17565;DHT22;62994;52.126;5.596;2023-03-01T00:29:41;2.40;99.90
17565;DHT22;62994;52.126;5.596;2023-03-01T00:32:08;2.40;99.90
17565;DHT22;62994;52.126;5.596;2023-03-01T00:34:39;2.30;99.90
17565;DHT22;62994;52.126;5.596;2023-03-01T00:37:08;2.30;99.90
17565;DHT22;62994;52.126;5.596;2023-03-01T00:39:35;2.30;99.90
17565;DHT22;62994;52.126;5.596;2023-03-01T00:42:02;2.30;99.90
17565;DHT22;62994;52.126;5.596;2023-03-01T00:44:29;2.20;99.90
17565;DHT22;62994;52.126;5.596;2023-03-01T00:46:57;2.20;99.90
17565;DHT22;62994;52.126;5.596;2023-03-01T00:49:24;2.10;99.90
17565;DHT22;62994;52.126;5.596;2023-03-01T00:51:53;2.20;99.90
17565;DHT22;62994;52.126;5.596;2023-03-01T00:54:22;2.10;99.90
17565;DHT22;62994;52.126;5.596;2023-03-01T00:56:49;2.10;99.90
17565;DHT22;62994;52.126;5.596;2023-03-01T00:59:20;2.00;99.90
17565;DHT22;62994;52.126;5.596;2023-03-01T01:01:47;2.00;99.90
17565;DHT22;62994;52.126;5.596;2023-03-01T01:04:15;2.00;99.90
17565;DHT22;62994;52.126;5.596;2023-03-01T01:06:43;2.00;99.90
17565;DHT22;62994;52.126;5.596;2023-03-01T01:09:14;1.90;99.90
17565;DHT22;62994;52.126;5.596;2023-03-01T01:11:48;1.90;99.90
17565;DHT22;62994;52.126;5.596;2023-03-01T01:14:17;1.90;99.90
17565;DHT22;62994;52.126;5.596;2023-03-01T01:16:44;1.90;99.90
17565;DHT22;62994;52.126;5.596;2023-03-01T01:19:12;1.80;99.90
17565;DHT22;62994;52.126;5.596;2023-03-01T01:21:40;1.80;99.90
17565;DHT22;62994;52.126;5.596;2023-03-01T01:24:08;1.80;99.90
17565;DHT22;62994;52.126;5.596;2023-03-01T01:26:42;1.80;99.90
17565;DHT22;62994;52.126;5.596;2023-03-01T01:29:11;1.70;99.90
17565;DHT22;62994;52.126;5.596;2023-03-01T01:31:39;1.70;99.90
17565;DHT22;62994;52.126;5.596;2023-03-01T01:34:09;1.70;99.90
17565;DHT22;62994;52.126;5.596;2023-03-01T01:36:39;1.70;99.90
17565;DHT22;62994;52.126;5.596;2023-03-01T01:39:06;1.70;99.90
17565;DHT22;62994;52.126;5.596;2023-03-01T01:41:39;1.60;99.90
17565;DHT22;62994;52.126;5.596;2023-03-01T01:44:16;1.60;99.90
17565;DHT22;62994;52.126;5.596;2023-03-01T01:46:47;1.60;99.90
17565;DHT22;62994;52.126;5.596;2023-03-01T01:49:23;1.50;99.90
17565;DHT22;62994;52.126;5.596;2023-03-01T01:51:55;1.50;99.90
17565;DHT22;62994;52.126;5.596;2023-03-01T01:54:29;1.50;99.90
17565;DHT22;62994;52.126;5.596;2023-03-01T01:57:00;1.50;99.90
17565;DHT22;62994;52.126;5.596;2023-03-01T01:59:30;1.40;99.90
17565;DHT22;62994;52.126;5.596;2023-03-01T02:02:00;1.40;99.90
17565;DHT22;62994;52.126;5.596;2023-03-01T02:04:28;1.40;99.90
17565;DHT22;62994;52.126;5.596;2023-03-01T02:07:01;1.40;99.90
17565;DHT22;62994;52.126;5.596;2023-03-01T02:09:32;1.30;99.90
17565;DHT22;62994;52.126;5.596;2023-03-01T02:12:00;1.30;99.90
17565;DHT22;62994;52.126;5.596;2023-03-01T02:14:28;1.30;99.90
17565;DHT22;62994;52.126;5.596;2023-03-01T02:16:56;1.30;99.90
17565;DHT22;62994;52.126;5.596;2023-03-01T02:19:44;1.20;99.90
17565;DHT22;62994;52.126;5.596;2023-03-01T02:22:20;1.20;99.90
17565;DHT22;62994;52.126;5.596;2023-03-01T02:24:56;1.10;99.90
17565;DHT22;62994;52.126;5.596;2023-03-01T02:27:32;1.10;99.90
17565;DHT22;62994;52.126;5.596;2023-03-01T02:30:01;1.00;99.90
17565;DHT22;62994;52.126;5.596;2023-03-01T02:32:28;1.00;99.90
17565;DHT22;62994;52.126;5.596;2023-03-01T02:34:56;1.00;99.90
17565;DHT22;62994;52.126;5.596;2023-03-01T02:37:24;1.00;99.90
17565;DHT22;62994;52.126;5.596;2023-03-01T02:39:59;1.00;99.90
17565;DHT22;62994;52.126;5.596;2023-03-01T02:42:38;1.00;99.90
17565;DHT22;62994;52.126;5.596;2023-03-01T02:45:09;0.90;99.90
17565;DHT22;62994;52.126;5.596;2023-03-01T02:47:36;0.90;99.90
17565;DHT22;62994;52.126;5.596;2023-03-01T02:50:14;0.90;99.90
17565;DHT22;62994;52.126;5.596;2023-03-01T02:52:46;0.90;99.90
17565;DHT22;62994;52.126;5.596;2023-03-01T02:55:16;0.90;99.90
17565;DHT22;62994;52.126;5.596;2023-03-01T02:57:46;0.80;99.90
17565;DHT22;62994;52.126;5.596;2023-03-01T03:00:19;0.80;99.90
17565;DHT22;62994;52.126;5.596;2023-03-01T03:02:49;0.80;99.90
17565;DHT22;62994;52.126;5.596;2023-03-01T03:05:19;0.80;99.90
17565;DHT22;62994;52.126;5.596;2023-03-01T03:07:47;0.80;99.90
17565;DHT22;62994;52.126;5.596;2023-03-01T03:10:16;0.80;99.90
17565;DHT22;62994;52.126;5.596;2023-03-01T03:12:49;0.80;99.90
17565;DHT22;62994;52.126;5.596;2023-03-01T03:15:18;0.80;99.90
17565;DHT22;62994;52.126;5.596;2023-03-01T03:17:46;0.70;99.90
17565;DHT22;62994;52.126;5.596;2023-03-01T03:20:16;0.80;99.90
17565;DHT22;62994;52.126;5.596;2023-03-01T03:22:45;0.80;99.90
17565;DHT22;62994;52.126;5.596;2023-03-01T03:25:13;0.90;99.90
17565;DHT22;62994;52.126;5.596;2023-03-01T03:27:42;0.90;99.90
17565;DHT22;62994;52.126;5.596;2023-03-01T03:30:14;0.80;99.90
17565;DHT22;62994;52.126;5.596;2023-03-01T03:32:45;0.80;99.90
17565;DHT22;62994;52.126;5.596;2023-03-01T03:35:18;0.80;99.90
17565;DHT22;62994;52.126;5.596;2023-03-01T03:37:45;0.80;99.90
17565;DHT22;62994;52.126;5.596;2023-03-01T03:40:34;0.70;99.90
17565;DHT22;62994;52.126;5.596;2023-03-01T03:43:05;0.70;99.90
17565;DHT22;62994;52.126;5.596;2023-03-01T03:45:33;0.70;99.90
17565;DHT22;62994;52.126;5.596;2023-03-01T03:48:03;0.70;99.90
17565;DHT22;62994;52.126;5.596;2023-03-01T03:50:31;0.60;99.90
17565;DHT22;62994;52.126;5.596;2023-03-01T03:53:00;0.60;99.90
17565;DHT22;62994;52.126;5.596;2023-03-01T03:55:27;0.60;99.90
17565;DHT22;62994;52.126;5.596;2023-03-01T03:57:57;0.60;99.90
17565;DHT22;62994;52.126;5.596;2023-03-01T04:00:28;0.60;99.90
17565;DHT22;62994;52.126;5.596;2023-03-01T04:02:55;0.50;99.90
17565;DHT22;62994;52.126;5.596;2023-03-01T04:05:23;0.50;99.90
17565;DHT22;62994;52.126;5.596;2023-03-01T04:07:52;0.50;99.90
17565;DHT22;62994;52.126;5.596;2023-03-01T04:10:34;0.50;99.90
17565;DHT22;62994;52.126;5.596;2023-03-01T04:13:03;0.50;99.90
17565;DHT22;62994;52.126;5.596;2023-03-01T04:15:30;0.40;99.90
17565;DHT22;62994;52.126;5.596;2023-03-01T04:17:59;0.40;99.90
17565;DHT22;62994;52.126;5.596;2023-03-01T04:20:29;0.40;99.90
17565;DHT22;62994;52.126;5.596;2023-03-01T04:22:58;0.40;99.90
17565;DHT22;62994;52.126;5.596;2023-03-01T04:25:27;0.40;99.90
17565;DHT22;62994;52.126;5.596;2023-03-01T04:27:54;0.40;99.90
17565;DHT22;62994;52.126;5.596;2023-03-01T04:30:21;0.30;99.90
17565;DHT22;62994;52.126;5.596;2023-03-01T04:32:51;0.30;99.90
17565;DHT22;62994;52.126;5.596;2023-03-01T04:35:18;0.30;99.90
17565;DHT22;62994;52.126;5.596;2023-03-01T04:37:47;0.30;99.90
17565;DHT22;62994;52.126;5.596;2023-03-01T04:40:14;0.30;99.90
17565;DHT22;62994;52.126;5.596;2023-03-01T04:42:42;0.30;99.90
17565;DHT22;62994;52.126;5.596;2023-03-01T04:45:10;0.30;99.90
17565;DHT22;62994;52.126;5.596;2023-03-01T04:47:39;0.30;99.90
17565;DHT22;62994;52.126;5.596;2023-03-01T04:50:07;0.30;99.90
17565;DHT22;62994;52.126;5.596;2023-03-01T04:52:35;0.20;99.90
17565;DHT22;62994;52.126;5.596;2023-03-01T04:55:05;0.30;99.90
17565;DHT22;62994;52.126;5.596;2023-03-01T04:57:32;0.20;99.90
17565;DHT22;62994;52.126;5.596;2023-03-01T04:59:59;0.20;99.90
17565;DHT22;62994;52.126;5.596;2023-03-01T05:02:27;0.20;99.90
17565;DHT22;62994;52.126;5.596;2023-03-01T05:04:55;0.20;99.90
17565;DHT22;62994;52.126;5.596;2023-03-01T05:07:23;0.20;99.90
17565;DHT22;62994;52.126;5.596;2023-03-01T05:09:51;0.20;99.90
17565;DHT22;62994;52.126;5.596;2023-03-01T05:12:21;0.20;99.90
17565;DHT22;62994;52.126;5.596;2023-03-01T05:14:48;0.20;99.90
17565;DHT22;62994;52.126;5.596;2023-03-01T05:17:17;0.10;99.90
17565;DHT22;62994;52.126;5.596;2023-03-01T05:19:44;0.10;99.90
17565;DHT22;62994;52.126;5.596;2023-03-01T05:22:11;0.10;99.90
17565;DHT22;62994;52.126;5.596;2023-03-01T05:24:38;0.10;99.90
17565;DHT22;62994;52.126;5.596;2023-03-01T05:27:06;0.10;99.90
17565;DHT22;62994;52.126;5.596;2023-03-01T05:29:34;0.10;99.90
17565;DHT22;62994;52.126;5.596;2023-03-01T05:32:02;0.10;99.90
17565;DHT22;62994;52.126;5.596;2023-03-01T05:34:31;0.00;99.90
17565;DHT22;62994;52.126;5.596;2023-03-01T05:37:01;0.00;99.90
17565;DHT22;62994;52.126;5.596;2023-03-01T05:39:29;0.00;99.90
17565;DHT22;62994;52.126;5.596;2023-03-01T05:41:58;0.00;99.90
17565;DHT22;62994;52.126;5.596;2023-03-01T05:44:27;0.00;99.90
17565;DHT22;62994;52.126;5.596;2023-03-01T05:46:55;0.10;99.90
17565;DHT22;62994;52.126;5.596;2023-03-01T05:49:23;0.20;99.90
17565;DHT22;62994;52.126;5.596;2023-03-01T05:51:51;0.10;99.90
17565;DHT22;62994;52.126;5.596;2023-03-01T05:54:20;0.10;99.90
17565;DHT22;62994;52.126;5.596;2023-03-01T05:56:48;0.00;99.90
17565;DHT22;62994;52.126;5.596;2023-03-01T05:59:15;0.00;99.90
17565;DHT22;62994;52.126;5.596;2023-03-01T06:01:45;-0.10;99.90
17565;DHT22;62994;52.126;5.596;2023-03-01T06:04:14;-0.10;99.90
17565;DHT22;62994;52.126;5.596;2023-03-01T06:06:43;-0.20;99.90
17565;DHT22;62994;52.126;5.596;2023-03-01T06:09:10;-0.20;99.90
17565;DHT22;62994;52.126;5.596;2023-03-01T06:11:37;-0.20;99.90
17565;DHT22;62994;52.126;5.596;2023-03-01T06:14:06;-0.20;99.90
17565;DHT22;62994;52.126;5.596;2023-03-01T06:16:34;-0.30;99.90
17565;DHT22;62994;52.126;5.596;2023-03-01T06:19:01;-0.30;99.90
17565;DHT22;62994;52.126;5.596;2023-03-01T06:21:29;-0.30;99.90
17565;DHT22;62994;52.126;5.596;2023-03-01T06:24:01;-0.40;99.90
17565;DHT22;62994;52.126;5.596;2023-03-01T06:26:28;-0.40;99.90
17565;DHT22;62994;52.126;5.596;2023-03-01T06:28:55;-0.40;99.90
17565;DHT22;62994;52.126;5.596;2023-03-01T06:31:22;-0.40;99.90
17565;DHT22;62994;52.126;5.596;2023-03-01T06:33:49;-0.40;99.90
17565;DHT22;62994;52.126;5.596;2023-03-01T06:36:17;-0.40;99.90
17565;DHT22;62994;52.126;5.596;2023-03-01T06:38:48;-0.40;99.90
17565;DHT22;62994;52.126;5.596;2023-03-01T06:41:15;-0.40;99.90
17565;DHT22;62994;52.126;5.596;2023-03-01T06:43:42;-0.40;99.90
17565;DHT22;62994;52.126;5.596;2023-03-01T06:46:09;-0.50;99.90
17565;DHT22;62994;52.126;5.596;2023-03-01T06:48:38;-0.50;99.90
17565;DHT22;62994;52.126;5.596;2023-03-01T06:51:07;-0.50;99.90
17565;DHT22;62994;52.126;5.596;2023-03-01T06:53:34;-0.50;99.90
17565;DHT22;62994;52.126;5.596;2023-03-01T06:56:08;-0.50;99.90
17565;DHT22;62994;52.126;5.596;2023-03-01T06:58:35;-0.50;99.90
17565;DHT22;62994;52.126;5.596;2023-03-01T07:01:05;-0.50;99.90
17565;DHT22;62994;52.126;5.596;2023-03-01T07:03:32;-0.50;99.90
17565;DHT22;62994;52.126;5.596;2023-03-01T07:06:00;-0.50;99.90
17565;DHT22;62994;52.126;5.596;2023-03-01T07:08:27;-0.40;99.90
17565;DHT22;62994;52.126;5.596;2023-03-01T07:10:57;-0.40;99.90
17565;DHT22;62994;52.126;5.596;2023-03-01T07:13:33;-0.40;99.90
17565;DHT22;62994;52.126;5.596;2023-03-01T07:16:00;-0.50;99.90
17565;DHT22;62994;52.126;5.596;2023-03-01T07:18:28;-0.40;99.90
17565;DHT22;62994;52.126;5.596;2023-03-01T07:20:55;-0.50;99.90
17565;DHT22;62994;52.126;5.596;2023-03-01T07:23:22;-0.40;99.90
17565;DHT22;62994;52.126;5.596;2023-03-01T07:25:52;-0.40;99.90
17565;DHT22;62994;52.126;5.596;2023-03-01T07:28:23;-0.40;99.90
17565;DHT22;62994;52.126;5.596;2023-03-01T07:31:03;-0.40;99.90
17565;DHT22;62994;52.126;5.596;2023-03-01T07:33:30;-0.40;99.90
17565;DHT22;62994;52.126;5.596;2023-03-01T07:35:58;-0.50;99.90
17565;DHT22;62994;52.126;5.596;2023-03-01T07:38:28;-0.50;99.90
17565;DHT22;62994;52.126;5.596;2023-03-01T07:40:58;-0.50;99.90
17565;DHT22;62994;52.126;5.596;2023-03-01T07:43:26;-0.40;99.90
17565;DHT22;62994;52.126;5.596;2023-03-01T07:45:53;-0.40;99.90
17565;DHT22;62994;52.126;5.596;2023-03-01T07:48:24;-0.40;99.90
17565;DHT22;62994;52.126;5.596;2023-03-01T07:50:58;-0.40;99.90
17565;DHT22;62994;52.126;5.596;2023-03-01T07:53:25;-0.40;99.90
17565;DHT22;62994;52.126;5.596;2023-03-01T07:56:00;-0.40;99.90
17565;DHT22;62994;52.126;5.596;2023-03-01T07:58:28;-0.30;99.90
17565;DHT22;62994;52.126;5.596;2023-03-01T08:00:55;-0.30;99.90
17565;DHT22;62994;52.126;5.596;2023-03-01T08:03:23;-0.30;99.90
17565;DHT22;62994;52.126;5.596;2023-03-01T08:05:51;-0.20;99.90
17565;DHT22;62994;52.126;5.596;2023-03-01T08:08:18;-0.20;99.90
17565;DHT22;62994;52.126;5.596;2023-03-01T08:10:45;-0.20;99.90
17565;DHT22;62994;52.126;5.596;2023-03-01T08:13:13;-0.10;99.90
17565;DHT22;62994;52.126;5.596;2023-03-01T08:15:40;-0.10;99.90
17565;DHT22;62994;52.126;5.596;2023-03-01T08:18:07;0.00;99.90
17565;DHT22;62994;52.126;5.596;2023-03-01T08:20:36;0.00;99.90
17565;DHT22;62994;52.126;5.596;2023-03-01T08:23:03;0.10;99.90
17565;DHT22;62994;52.126;5.596;2023-03-01T08:25:30;0.10;99.90
17565;DHT22;62994;52.126;5.596;2023-03-01T08:27:57;0.20;99.90
17565;DHT22;62994;52.126;5.596;2023-03-01T08:30:25;0.30;99.90
17565;DHT22;62994;52.126;5.596;2023-03-01T08:32:52;0.40;99.90
17565;DHT22;62994;52.126;5.596;2023-03-01T08:35:20;0.50;99.90
17565;DHT22;62994;52.126;5.596;2023-03-01T08:37:50;0.60;99.90
17565;DHT22;62994;52.126;5.596;2023-03-01T08:40:18;0.70;99.90
17565;DHT22;62994;52.126;5.596;2023-03-01T08:42:45;0.70;99.90
17565;DHT22;62994;52.126;5.596;2023-03-01T08:45:12;0.90;99.90
17565;DHT22;62994;52.126;5.596;2023-03-01T08:47:44;1.00;99.90
17565;DHT22;62994;52.126;5.596;2023-03-01T08:50:12;1.00;99.90
17565;DHT22;62994;52.126;5.596;2023-03-01T08:52:39;1.10;99.90
17565;DHT22;62994;52.126;5.596;2023-03-01T08:55:10;1.20;99.90
17565;DHT22;62994;52.126;5.596;2023-03-01T08:57:42;1.30;99.90
17565;DHT22;62994;52.126;5.596;2023-03-01T09:00:14;1.50;99.90
17565;DHT22;62994;52.126;5.596;2023-03-01T09:02:43;1.50;99.90
17565;DHT22;62994;52.126;5.596;2023-03-01T09:05:10;1.70;99.90
17565;DHT22;62994;52.126;5.596;2023-03-01T09:07:37;1.80;99.90
17565;DHT22;62994;52.126;5.596;2023-03-01T09:10:05;1.80;99.90
17565;DHT22;62994;52.126;5.596;2023-03-01T09:12:34;2.00;99.90
17565;DHT22;62994;52.126;5.596;2023-03-01T09:15:01;2.10;99.90
17565;DHT22;62994;52.126;5.596;2023-03-01T09:17:28;2.20;99.90
17565;DHT22;62994;52.126;5.596;2023-03-01T09:20:00;2.30;99.90
17565;DHT22;62994;52.126;5.596;2023-03-01T09:22:27;2.40;99.90
17565;DHT22;62994;52.126;5.596;2023-03-01T09:24:55;2.50;99.90
17565;DHT22;62994;52.126;5.596;2023-03-01T09:27:29;2.60;99.90
17565;DHT22;62994;52.126;5.596;2023-03-01T09:29:57;2.70;99.90
17565;DHT22;62994;52.126;5.596;2023-03-01T09:32:24;2.80;99.90
17565;DHT22;62994;52.126;5.596;2023-03-01T09:34:52;3.00;99.90
17565;DHT22;62994;52.126;5.596;2023-03-01T09:37:35;3.10;99.90
17565;DHT22;62994;52.126;5.596;2023-03-01T09:40:04;3.20;99.90
17565;DHT22;62994;52.126;5.596;2023-03-01T09:42:34;3.30;99.90
17565;DHT22;62994;52.126;5.596;2023-03-01T09:45:06;3.50;99.90
17565;DHT22;62994;52.126;5.596;2023-03-01T09:47:36;3.50;99.90
17565;DHT22;62994;52.126;5.596;2023-03-01T09:50:06;3.60;99.90
17565;DHT22;62994;52.126;5.596;2023-03-01T09:52:41;3.70;99.90
17565;DHT22;62994;52.126;5.596;2023-03-01T09:55:11;3.90;99.90
17565;DHT22;62994;52.126;5.596;2023-03-01T09:57:46;4.00;99.90
17565;DHT22;62994;52.126;5.596;2023-03-01T10:00:30;4.10;99.90
17565;DHT22;62994;52.126;5.596;2023-03-01T10:03:03;4.20;99.90
17565;DHT22;62994;52.126;5.596;2023-03-01T10:05:43;4.30;99.90
17565;DHT22;62994;52.126;5.596;2023-03-01T10:08:30;4.40;99.90
17565;DHT22;62994;52.126;5.596;2023-03-01T10:11:02;4.50;99.90
17565;DHT22;62994;52.126;5.596;2023-03-01T10:13:37;4.60;99.90
17565;DHT22;62994;52.126;5.596;2023-03-01T10:16:14;4.60;99.90
17565;DHT22;62994;52.126;5.596;2023-03-01T10:18:47;4.70;99.90
17565;DHT22;62994;52.126;5.596;2023-03-01T10:21:20;4.80;99.90
17565;DHT22;62994;52.126;5.596;2023-03-01T10:23:50;4.80;99.90
17565;DHT22;62994;52.126;5.596;2023-03-01T10:26:38;4.90;99.90
17565;DHT22;62994;52.126;5.596;2023-03-01T10:29:08;5.00;99.90
17565;DHT22;62994;52.126;5.596;2023-03-01T10:31:43;5.00;99.90
17565;DHT22;62994;52.126;5.596;2023-03-01T10:34:13;5.10;99.90
17565;DHT22;62994;52.126;5.596;2023-03-01T10:36:42;5.20;99.90
17565;DHT22;62994;52.126;5.596;2023-03-01T10:39:15;5.20;99.90
17565;DHT22;62994;52.126;5.596;2023-03-01T10:41:59;5.20;99.90
17565;DHT22;62994;52.126;5.596;2023-03-01T10:44:51;5.40;99.90
17565;DHT22;62994;52.126;5.596;2023-03-01T10:47:21;5.50;99.90
17565;DHT22;62994;52.126;5.596;2023-03-01T10:50:03;5.50;99.90
17565;DHT22;62994;52.126;5.596;2023-03-01T10:52:34;5.60;99.90
17565;DHT22;62994;52.126;5.596;2023-03-01T10:58:07;5.90;99.90
17565;DHT22;62994;52.126;5.596;2023-03-01T11:00:48;5.90;99.90
17565;DHT22;62994;52.126;5.596;2023-03-01T11:03:21;6.00;99.90
17565;DHT22;62994;52.126;5.596;2023-03-01T11:06:12;6.10;99.90
17565;DHT22;62994;52.126;5.596;2023-03-01T11:08:48;6.20;99.90
17565;DHT22;62994;52.126;5.596;2023-03-01T11:11:23;6.20;99.90
17565;DHT22;62994;52.126;5.596;2023-03-01T11:13:54;6.30;99.90
17565;DHT22;62994;52.126;5.596;2023-03-01T11:16:33;6.40;99.90
17565;DHT22;62994;52.126;5.596;2023-03-01T11:19:15;6.40;99.90
17565;DHT22;62994;52.126;5.596;2023-03-01T11:21:49;6.60;99.90
17565;DHT22;62994;52.126;5.596;2023-03-01T11:24:29;6.60;99.90
17565;DHT22;62994;52.126;5.596;2023-03-01T11:27:01;6.60;99.90
17565;DHT22;62994;52.126;5.596;2023-03-01T11:29:34;6.70;99.90
17565;DHT22;62994;52.126;5.596;2023-03-01T11:32:08;6.80;99.90
17565;DHT22;62994;52.126;5.596;2023-03-01T11:34:42;6.80;99.90
17565;DHT22;62994;52.126;5.596;2023-03-01T11:37:19;6.90;99.90
17565;DHT22;62994;52.126;5.596;2023-03-01T11:39:56;6.90;99.90
17565;DHT22;62994;52.126;5.596;2023-03-01T11:42:30;6.90;99.90
17565;DHT22;62994;52.126;5.596;2023-03-01T11:45:08;6.90;99.90
17565;DHT22;62994;52.126;5.596;2023-03-01T11:48:03;6.90;99.90
17565;DHT22;62994;52.126;5.596;2023-03-01T11:50:40;7.10;99.90
17565;DHT22;62994;52.126;5.596;2023-03-01T11:53:33;7.40;99.90
17565;DHT22;62994;52.126;5.596;2023-03-01T11:56:15;7.60;99.90
17565;DHT22;62994;52.126;5.596;2023-03-01T11:59:01;7.70;99.90
17565;DHT22;62994;52.126;5.596;2023-03-01T12:01:41;7.70;99.90
17565;DHT22;62994;52.126;5.596;2023-03-01T12:07:32;7.70;99.90
17565;DHT22;62994;52.126;5.596;2023-03-01T12:10:22;7.70;99.90
17565;DHT22;62994;52.126;5.596;2023-03-01T12:16:02;7.90;99.90
17565;DHT22;62994;52.126;5.596;2023-03-01T12:18:58;7.90;99.90
17565;DHT22;62994;52.126;5.596;2023-03-01T12:21:46;8.00;99.90
17565;DHT22;62994;52.126;5.596;2023-03-01T12:24:42;8.10;99.90
17565;DHT22;62994;52.126;5.596;2023-03-01T12:27:38;8.00;99.90
17565;DHT22;62994;52.126;5.596;2023-03-01T12:30:21;8.10;99.90
17565;DHT22;62994;52.126;5.596;2023-03-01T12:33:08;8.20;99.90
17565;DHT22;62994;52.126;5.596;2023-03-01T12:36:05;8.30;99.90
17565;DHT22;62994;52.126;5.596;2023-03-01T12:38:41;8.30;99.90
17565;DHT22;62994;52.126;5.596;2023-03-01T12:41:38;8.30;99.90
17565;DHT22;62994;52.126;5.596;2023-03-01T12:44:15;8.40;99.90
17565;DHT22;62994;52.126;5.596;2023-03-01T12:47:05;8.50;99.90
17565;DHT22;62994;52.126;5.596;2023-03-01T12:49:39;8.60;99.90
17565;DHT22;62994;52.126;5.596;2023-03-01T12:52:11;8.60;99.90
17565;DHT22;62994;52.126;5.596;2023-03-01T12:54:39;8.60;99.90
17565;DHT22;62994;52.126;5.596;2023-03-01T12:57:14;8.70;99.90
17565;DHT22;62994;52.126;5.596;2023-03-01T12:59:51;8.80;99.90
17565;DHT22;62994;52.126;5.596;2023-03-01T13:02:24;8.90;99.90
17565;DHT22;62994;52.126;5.596;2023-03-01T13:05:05;9.00;99.90
17565;DHT22;62994;52.126;5.596;2023-03-01T13:07:38;9.20;99.90
17565;DHT22;62994;52.126;5.596;2023-03-01T13:10:19;9.30;99.90
17565;DHT22;62994;52.126;5.596;2023-03-01T13:13:12;9.40;99.90
17565;DHT22;62994;52.126;5.596;2023-03-01T13:15:41;9.60;99.90
17565;DHT22;62994;52.126;5.596;2023-03-01T13:18:31;9.60;99.90
17565;DHT22;62994;52.126;5.596;2023-03-01T13:21:01;9.70;99.90
17565;DHT22;62994;52.126;5.596;2023-03-01T13:23:34;9.70;99.90
17565;DHT22;62994;52.126;5.596;2023-03-01T13:26:08;9.80;99.90
17565;DHT22;62994;52.126;5.596;2023-03-01T13:28:57;9.90;99.90
17565;DHT22;62994;52.126;5.596;2023-03-01T13:31:59;10.00;99.90
17565;DHT22;62994;52.126;5.596;2023-03-01T13:34:44;10.00;99.90
17565;DHT22;62994;52.126;5.596;2023-03-01T13:37:28;10.10;99.90
17565;DHT22;62994;52.126;5.596;2023-03-01T13:39:58;10.10;99.90
17565;DHT22;62994;52.126;5.596;2023-03-01T13:42:41;10.10;99.90
17565;DHT22;62994;52.126;5.596;2023-03-01T13:45:34;10.20;99.90
17565;DHT22;62994;52.126;5.596;2023-03-01T13:48:08;10.20;99.90
17565;DHT22;62994;52.126;5.596;2023-03-01T13:50:44;10.20;99.90
17565;DHT22;62994;52.126;5.596;2023-03-01T13:53:18;10.20;99.90
17565;DHT22;62994;52.126;5.596;2023-03-01T13:55:48;10.20;99.90
17565;DHT22;62994;52.126;5.596;2023-03-01T13:58:23;10.30;99.90
17565;DHT22;62994;52.126;5.596;2023-03-01T14:00:59;10.40;99.90
17565;DHT22;62994;52.126;5.596;2023-03-01T14:03:28;10.40;99.90
17565;DHT22;62994;52.126;5.596;2023-03-01T14:06:16;10.40;99.90
17565;DHT22;62994;52.126;5.596;2023-03-01T14:08:48;10.50;99.90
17565;DHT22;62994;52.126;5.596;2023-03-01T14:14:44;10.50;99.90
17565;DHT22;62994;52.126;5.596;2023-03-01T14:17:35;10.50;99.90
17565;DHT22;62994;52.126;5.596;2023-03-01T14:20:19;10.40;99.90
17565;DHT22;62994;52.126;5.596;2023-03-01T14:22:47;10.40;99.90
17565;DHT22;62994;52.126;5.596;2023-03-01T14:25:21;10.50;99.90
17565;DHT22;62994;52.126;5.596;2023-03-01T14:27:59;10.60;99.90
17565;DHT22;62994;52.126;5.596;2023-03-01T14:30:31;10.70;99.90
17565;DHT22;62994;52.126;5.596;2023-03-01T14:33:02;10.70;99.90
17565;DHT22;62994;52.126;5.596;2023-03-01T14:35:31;10.70;99.90
17565;DHT22;62994;52.126;5.596;2023-03-01T14:37:59;10.80;99.90
17565;DHT22;62994;52.126;5.596;2023-03-01T14:40:28;10.70;99.90
17565;DHT22;62994;52.126;5.596;2023-03-01T14:42:58;10.60;99.90
17565;DHT22;62994;52.126;5.596;2023-03-01T14:45:27;10.40;99.90
17565;DHT22;62994;52.126;5.596;2023-03-01T14:48:02;10.10;99.90
17565;DHT22;62994;52.126;5.596;2023-03-01T14:50:42;9.80;99.90
17565;DHT22;62994;52.126;5.596;2023-03-01T14:53:16;9.80;99.90
17565;DHT22;62994;52.126;5.596;2023-03-01T14:55:48;9.70;99.90
17565;DHT22;62994;52.126;5.596;2023-03-01T14:58:20;9.70;99.90
17565;DHT22;62994;52.126;5.596;2023-03-01T15:00:50;9.60;99.90
17565;DHT22;62994;52.126;5.596;2023-03-01T15:03:26;9.50;99.90
17565;DHT22;62994;52.126;5.596;2023-03-01T15:05:56;9.60;99.90
17565;DHT22;62994;52.126;5.596;2023-03-01T15:08:25;9.60;99.90
17565;DHT22;62994;52.126;5.596;2023-03-01T15:11:04;9.50;99.90
17565;DHT22;62994;52.126;5.596;2023-03-01T15:13:32;9.40;99.90
17565;DHT22;62994;52.126;5.596;2023-03-01T15:16:08;9.40;99.90
17565;DHT22;62994;52.126;5.596;2023-03-01T15:18:42;9.30;99.90
17565;DHT22;62994;52.126;5.596;2023-03-01T15:21:17;9.20;99.90
17565;DHT22;62994;52.126;5.596;2023-03-01T15:23:49;9.00;99.90
17565;DHT22;62994;52.126;5.596;2023-03-01T15:26:24;9.00;99.90
17565;DHT22;62994;52.126;5.596;2023-03-01T15:28:53;8.90;99.90
17565;DHT22;62994;52.126;5.596;2023-03-01T15:31:25;8.90;99.90
17565;DHT22;62994;52.126;5.596;2023-03-01T15:34:08;8.90;99.90
17565;DHT22;62994;52.126;5.596;2023-03-01T15:36:46;8.80;99.90
17565;DHT22;62994;52.126;5.596;2023-03-01T15:39:32;8.70;99.90
17565;DHT22;62994;52.126;5.596;2023-03-01T15:42:03;8.60;99.90
17565;DHT22;62994;52.126;5.596;2023-03-01T15:44:33;8.60;99.90
17565;DHT22;62994;52.126;5.596;2023-03-01T15:47:01;8.40;99.90
17565;DHT22;62994;52.126;5.596;2023-03-01T15:49:37;8.20;99.90
17565;DHT22;62994;52.126;5.596;2023-03-01T15:52:09;8.20;99.90
17565;DHT22;62994;52.126;5.596;2023-03-01T15:54:39;8.20;99.90
17565;DHT22;62994;52.126;5.596;2023-03-01T15:57:17;8.30;99.90
17565;DHT22;62994;52.126;5.596;2023-03-01T15:59:45;8.30;99.90
17565;DHT22;62994;52.126;5.596;2023-03-01T16:02:13;8.30;99.90
17565;DHT22;62994;52.126;5.596;2023-03-01T16:04:42;8.20;99.90
17565;DHT22;62994;52.126;5.596;2023-03-01T16:07:10;8.20;99.90
17565;DHT22;62994;52.126;5.596;2023-03-01T16:09:37;8.20;99.90
17565;DHT22;62994;52.126;5.596;2023-03-01T16:12:08;8.30;99.90
17565;DHT22;62994;52.126;5.596;2023-03-01T16:14:39;8.20;99.90
17565;DHT22;62994;52.126;5.596;2023-03-01T16:17:06;8.10;99.90
17565;DHT22;62994;52.126;5.596;2023-03-01T16:19:35;8.10;99.90
17565;DHT22;62994;52.126;5.596;2023-03-01T16:22:04;8.10;99.90
17565;DHT22;62994;52.126;5.596;2023-03-01T16:24:31;8.10;99.90